Time,TemperatureF,DewpointF,PressureIn,WindDirection,WindDirectionDegrees,WindSpeedMPH,WindSpeedGustMPH,Humidity,HourlyPrecipIn,Conditions,Clouds,dailyrainin,SoftwareType,DateUTC
2013-01-06 15:02:00,32.0,15.0,-100.00,NNW,330,7.0,11.0,50,0.00,,,-99.99,,2013-01-06 21:02:00,
2013-01-06 15:22:00,32.0,16.0,-100.00,NW,325,7.0,10.0,50,0.00,,,-99.99,,2013-01-06 21:22:00,
2013-01-06 15:33:00,33.0,16.0,-100.00,NW,305,3.0,9.0,50,0.00,,,-99.99,,2013-01-06 21:33:00,
2013-01-06 15:42:00,33.0,16.0,-100.00,NW,305,3.0,9.0,50,0.00,,,-99.99,,2013-01-06 21:42:00,
2013-01-06 15:52:00,33.0,17.0,-100.00,NNW,330,6.0,9.0,51,0.00,,,-99.99,,2013-01-06 21:52:00,
2013-01-06 16:02:00,33.0,17.0,-100.00,NNW,330,6.0,9.0,51,0.00,,,-99.99,,2013-01-06 22:02:00,
2013-01-06 16:12:00,33.0,17.0,-100.00,WNW,300,5.0,7.0,50,0.00,,,-99.99,,2013-01-06 22:12:00,
2013-01-06 16:22:00,33.0,17.0,-100.00,NW,315,6.0,7.0,51,0.00,,,-99.99,,2013-01-06 22:22:00,
2013-01-06 16:33:00,32.0,17.0,-100.00,NW,325,4.0,7.0,53,0.00,,,-99.99,,2013-01-06 22:33:00,
2013-01-06 16:43:00,32.0,17.0,-100.00,NW,325,4.0,7.0,53,0.00,,,-99.99,,2013-01-06 22:43:00,
2013-01-06 16:52:00,31.0,17.0,-100.00,NW,320,4.0,6.0,53,0.00,,,-99.99,,2013-01-06 22:52:00,
2013-01-06 17:02:00,31.0,17.0,-100.00,NW,320,4.0,6.0,53,0.00,,,-99.99,,2013-01-06 23:02:00,
2013-01-06 17:12:00,31.0,17.0,-100.00,NW,320,4.0,5.0,55,0.00,,,-99.99,,2013-01-06 23:12:00,
2013-01-06 17:22:00,30.0,17.0,-100.00,NNW,330,3.0,4.0,56,0.00,,,-99.99,,2013-01-06 23:22:00,
2013-01-06 17:33:00,30.0,17.0,-100.00,North,0,2.0,3.0,59,0.00,,,-99.99,,2013-01-06 23:33:00,
2013-01-06 17:42:00,30.0,17.0,-100.00,North,0,2.0,3.0,59,0.00,,,-99.99,,2013-01-06 23:42:00,
2013-01-06 17:52:00,29.0,18.0,-100.00,NW,320,0.0,4.0,62,0.00,,,-99.99,,2013-01-06 23:52:00,
2013-01-06 18:02:00,29.0,18.0,-100.00,NW,320,0.0,4.0,62,0.00,,,-99.99,,2013-01-07 00:02:00,
2013-01-06 18:12:00,29.0,18.0,-100.00,South,170,1.0,2.0,62,0.00,,,-99.99,,2013-01-07 00:12:00,
2013-01-06 18:23:00,29.0,18.0,-100.00,SSE,165,0.0,1.0,63,0.00,,,-99.99,,2013-01-07 00:23:00,
2013-01-06 18:33:00,27.0,20.0,-100.00,SSE,150,1.0,2.0,74,0.00,,,-99.99,,2013-01-07 00:33:00,
2013-01-06 18:42:00,27.0,20.0,-100.00,SSE,150,1.0,2.0,74,0.00,,,-99.99,,2013-01-07 00:42:00,
2013-01-06 18:52:00,25.0,17.0,-100.00,SE,140,2.0,2.0,71,0.00,,,-99.99,,2013-01-07 00:52:00,
2013-01-06 19:02:00,25.0,17.0,-100.00,SE,140,2.0,2.0,71,0.00,,,-99.99,,2013-01-07 01:02:00,
2013-01-06 19:12:00,25.0,19.0,-100.00,SE,140,1.0,2.0,76,0.00,,,-99.99,,2013-01-07 01:12:00,
2013-01-06 19:22:00,25.0,19.0,-100.00,SSE,155,0.0,2.0,76,0.00,,,-99.99,,2013-01-07 01:22:00,
2013-01-06 19:32:00,25.0,18.0,-100.00,South,180,1.0,1.0,74,0.00,,,-99.99,,2013-01-07 01:32:00,
2013-01-06 19:42:00,25.0,18.0,-100.00,South,180,1.0,1.0,74,0.00,,,-99.99,,2013-01-07 01:42:00,
2013-01-06 19:52:00,22.0,17.0,-100.00,SE,145,2.0,3.0,80,0.00,,,-99.99,,2013-01-07 01:52:00,
2013-01-06 20:02:00,22.0,17.0,-100.00,SE,145,2.0,3.0,80,0.00,,,-99.99,,2013-01-07 02:02:00,
2013-01-06 20:12:00,22.0,19.0,-100.00,SSE,150,1.0,2.0,87,0.00,,,-99.99,,2013-01-07 02:12:00,
2013-01-06 20:22:00,21.0,18.0,-100.00,SSE,165,2.0,3.0,87,0.00,,,-99.99,,2013-01-07 02:22:00,
2013-01-06 20:32:00,21.0,18.0,-100.00,SE,145,1.0,2.0,90,0.00,,,-99.99,,2013-01-07 02:32:00,
2013-01-06 20:42:00,21.0,18.0,-100.00,SE,145,1.0,2.0,90,0.00,,,-99.99,,2013-01-07 02:42:00,
2013-01-06 20:52:00,20.0,18.0,-100.00,SE,140,2.0,2.0,92,0.00,,,-99.99,,2013-01-07 02:52:00,
2013-01-06 21:02:00,20.0,18.0,-100.00,SE,140,2.0,2.0,92,0.00,,,-99.99,,2013-01-07 03:02:00,
2013-01-06 21:12:00,19.0,18.0,-100.00,SE,135,2.0,4.0,95,0.00,,,-99.99,,2013-01-07 03:12:00,
2013-01-06 21:22:00,20.0,19.0,-100.00,SW,230,2.0,5.0,95,0.00,,,-99.99,,2013-01-07 03:22:00,
2013-01-06 21:33:00,23.0,19.0,-100.00,SW,230,6.0,8.0,83,0.00,,,-99.99,,2013-01-07 03:33:00,
2013-01-06 21:42:00,23.0,19.0,-100.00,SW,230,6.0,8.0,83,0.00,,,-99.99,,2013-01-07 03:42:00,
2013-01-06 21:52:00,23.0,20.0,-100.00,SW,225,5.0,7.0,87,0.00,,,-99.99,,2013-01-07 03:52:00,
2013-01-06 22:02:00,23.0,20.0,-100.00,SW,225,5.0,7.0,87,0.00,,,-99.99,,2013-01-07 04:02:00,
2013-01-06 22:12:00,23.0,20.0,-100.00,SW,235,6.0,10.0,89,0.00,,,-99.99,,2013-01-07 04:12:00,
2013-01-06 22:22:00,23.0,20.0,-100.00,South,185,4.0,9.0,88,0.00,,,-99.99,,2013-01-07 04:22:00,
2013-01-06 22:32:00,23.0,20.0,-100.00,SSW,205,4.0,8.0,88,0.00,,,-99.99,,2013-01-07 04:32:00,
2013-01-06 22:42:00,23.0,20.0,-100.00,SSW,205,4.0,8.0,88,0.00,,,-99.99,,2013-01-07 04:42:00,
2013-01-06 22:52:00,24.0,21.0,-100.00,SSW,200,4.0,6.0,86,0.00,,,-99.99,,2013-01-07 04:52:00,
2013-01-06 23:02:00,24.0,21.0,-100.00,SSW,200,4.0,6.0,86,0.00,,,-99.99,,2013-01-07 05:02:00,
2013-01-06 23:12:00,26.0,22.0,-100.00,SW,225,6.0,12.0,86,0.00,,,-99.99,,2013-01-07 05:12:00,
2013-01-06 23:22:00,26.0,22.0,-100.00,SW,230,6.0,9.0,85,0.00,,,-99.99,,2013-01-07 05:22:00,
2013-01-06 23:33:00,26.0,22.0,-100.00,South,185,2.0,9.0,84,0.00,,,-99.99,,2013-01-07 05:33:00,
2013-01-06 23:42:00,26.0,22.0,-100.00,South,185,2.0,9.0,84,0.00,,,-99.99,,2013-01-07 05:42:00,
2013-01-06 23:52:00,25.0,21.0,-100.00,South,190,4.0,6.0,86,0.00,,,-99.99,,2013-01-07 05:52:00,